Time;durP1;ratioP1;P1;durP2;ratioP2;P2;SDS_P1;SDS_P2;PMS_P1;PMS_P2;Temp;Humidity;BMP_temperature;BMP_pressure;BME280_temperature;BME280_humidity;BME280_pressure;Samples;Min_cycle;Max_cycle;Signal;HPM_P1;HPM_P2
2022/04/30 00:00:05;;;;;;;8.82;3.63;;;11.20;60.90;;;;;;5116356;28;20047;-67
2022/04/30 00:02:31;;;;;;;5.45;3.17;;;11.20;61.00;;;;;;5116245;28;20046;-67
2022/04/30 00:04:57;;;;;;;6.85;3.28;;;11.10;61.10;;;;;;5116175;28;20028;-67
2022/04/30 00:07:22;;;;;;;5.95;3.28;;;11.10;61.20;;;;;;5098341;28;20031;-67
2022/04/30 00:09:49;;;;;;;5.07;3.45;;;11.10;61.20;;;;;;5116149;28;20028;-67
2022/04/30 00:12:16;;;;;;;7.50;3.45;;;11.10;61.30;;;;;;5116049;28;20050;-66
2022/04/30 00:14:42;;;;;;;6.35;3.08;;;11.10;61.40;;;;;;5116054;28;20042;-67
2022/04/30 00:17:09;;;;;;;5.82;3.22;;;11.10;61.40;;;;;;5097057;28;20028;-67
2022/04/30 00:19:35;;;;;;;5.80;3.50;;;11.10;61.40;;;;;;5115968;28;20024;-67
2022/04/30 00:22:00;;;;;;;5.97;3.65;;;11.10;61.30;;;;;;5115971;28;20089;-67
2022/04/30 00:24:27;;;;;;;7.47;3.70;;;11.10;61.30;;;;;;5097860;28;20027;-67
2022/04/30 00:26:56;;;;;;;6.07;3.30;;;11.10;61.40;;;;;;5115833;28;20020;-67
2022/04/30 00:29:23;;;;;;;7.63;3.53;;;11.00;61.50;;;;;;5115511;28;20044;-67
2022/04/30 00:31:49;;;;;;;8.85;3.50;;;11.00;61.60;;;;;;5115720;28;20024;-67
2022/04/30 00:34:15;;;;;;;7.65;3.75;;;11.00;61.80;;;;;;5115691;28;20049;-67
2022/04/30 00:36:41;;;;;;;7.05;3.63;;;11.00;61.70;;;;;;5115766;28;20020;-67
2022/04/30 00:39:07;;;;;;;5.13;3.35;;;11.00;61.80;;;;;;5115607;28;20054;-67
2022/04/30 00:41:33;;;;;;;5.55;3.20;;;10.90;61.80;;;;;;5115461;28;20024;-67
2022/04/30 00:43:59;;;;;;;5.65;3.15;;;10.90;61.90;;;;;;5115525;28;20016;-67
2022/04/30 00:46:25;;;;;;;5.13;3.20;;;10.90;62.00;;;;;;5097544;28;20031;-67
2022/04/30 00:48:53;;;;;;;7.00;2.85;;;10.90;61.90;;;;;;5115425;28;20043;-67
2022/04/30 00:51:22;;;;;;;6.80;3.40;;;10.80;62.00;;;;;;5115373;28;20017;-67
2022/04/30 00:53:53;;;;;;;6.45;3.40;;;10.70;62.40;;;;;;5115309;28;20012;-67
2022/04/30 00:56:25;;;;;;;5.97;3.20;;;10.70;62.60;;;;;;5115269;28;20047;-67
2022/04/30 00:58:54;;;;;;;5.78;3.10;;;10.70;62.70;;;;;;5115236;28;20024;-67
2022/04/30 01:01:21;;;;;;;6.20;3.00;;;10.70;62.70;;;;;;5097216;28;20020;-67
2022/04/30 01:03:47;;;;;;;5.85;3.03;;;10.70;62.70;;;;;;5115092;28;20028;-67
2022/04/30 01:06:13;;;;;;;7.22;3.10;;;10.70;62.70;;;;;;5114984;28;20031;-66
2022/04/30 01:08:39;;;;;;;6.57;3.10;;;10.70;62.90;;;;;;5115070;28;20046;-67
2022/04/30 01:11:05;;;;;;;7.97;3.45;;;10.60;62.90;;;;;;5114986;28;20020;-67
2022/04/30 01:13:36;;;;;;;5.55;2.80;;;10.60;63.30;;;;;;5097151;28;20095;-67
2022/04/30 01:16:08;;;;;;;6.90;3.20;;;10.50;63.60;;;;;;5114970;28;20032;-67
2022/04/30 01:18:35;;;;;;;5.57;2.95;;;10.60;63.60;;;;;;5114842;28;20032;-67
2022/04/30 01:21:10;;;;;;;9.07;3.33;;;10.50;63.70;;;;;;5114783;28;20386;-67
2022/04/30 01:23:36;;;;;;;6.18;3.33;;;10.60;63.70;;;;;;5114764;28;20027;-67
2022/04/30 01:26:03;;;;;;;4.22;2.67;;;10.60;63.50;;;;;;5114621;28;20052;-67
2022/04/30 01:28:29;;;;;;;9.75;3.20;;;10.60;63.60;;;;;;5114023;28;20040;-67
2022/04/30 01:30:55;;;;;;;6.45;3.08;;;10.60;63.60;;;;;;5114608;28;20139;-66
2022/04/30 01:38:49;;;;;;;5.93;3.08;;;10.40;63.70;;;;;;5114639;28;20039;-66
2022/04/30 01:41:16;;;;;;;7.03;3.40;;;10.40;63.80;;;;;;5114381;28;20032;-66
2022/04/30 01:43:42;;;;;;;5.75;3.00;;;10.40;64.00;;;;;;5114386;28;20020;-66
2022/04/30 01:46:08;;;;;;;5.68;2.90;;;10.40;63.70;;;;;;5114204;28;20031;-67
2022/04/30 01:48:35;;;;;;;8.65;3.58;;;10.40;63.70;;;;;;5114203;28;20028;-67
2022/04/30 01:51:00;;;;;;;6.95;3.53;;;10.40;63.80;;;;;;5114219;28;20594;-67
2022/04/30 01:53:26;;;;;;;11.18;3.50;;;10.40;63.70;;;;;;5114135;28;20016;-67
2022/04/30 01:55:51;;;;;;;6.93;3.33;;;10.40;63.80;;;;;;5114155;28;20059;-67
2022/04/30 01:58:18;;;;;;;8.27;3.70;;;10.40;63.70;;;;;;5114085;28;20031;-67
2022/04/30 02:00:44;;;;;;;6.43;3.85;;;10.40;63.80;;;;;;5114060;28;20032;-67
2022/04/30 02:03:12;;;;;;;7.75;3.58;;;10.40;63.80;;;;;;5113983;28;20039;-67
2022/04/30 02:05:41;;;;;;;6.60;3.28;;;10.30;63.80;;;;;;5113872;28;20042;-67
2022/04/30 02:08:09;;;;;;;8.27;3.30;;;10.30;63.90;;;;;;5113904;28;20463;-67
2022/04/30 02:10:36;;;;;;;7.05;3.40;;;10.30;63.90;;;;;;5113906;28;20072;-67
2022/04/30 02:13:06;;;;;;;7.57;3.60;;;10.30;64.00;;;;;;5113818;28;20084;-67
2022/04/30 02:15:33;;;;;;;7.03;3.60;;;10.20;63.90;;;;;;5113831;28;20024;-67
2022/04/30 02:18:00;;;;;;;8.07;3.72;;;10.20;63.80;;;;;;5113765;28;20027;-67
2022/04/30 02:20:29;;;;;;;6.53;3.45;;;10.20;63.80;;;;;;5113594;28;20032;-67
2022/04/30 02:23:01;;;;;;;5.35;3.42;;;10.20;63.70;;;;;;5113712;28;20042;-67
2022/04/30 02:25:27;;;;;;;7.50;3.65;;;10.10;63.70;;;;;;5113597;28;20043;-67
2022/04/30 02:28:05;;;;;;;7.22;3.70;;;10.00;63.80;;;;;;5113533;28;20034;-67
2022/04/30 02:30:35;;;;;;;7.72;3.53;;;10.00;63.90;;;;;;5113635;28;20084;-67
2022/04/30 02:33:08;;;;;;;8.77;4.00;;;10.00;63.90;;;;;;5113599;28;20098;-67
2022/04/30 02:35:35;;;;;;;8.73;3.25;;;10.00;64.10;;;;;;5113556;28;20031;-68
2022/04/30 02:38:06;;;;;;;8.57;3.65;;;9.90;64.10;;;;;;5113420;28;20028;-67
2022/04/30 02:40:33;;;;;;;7.63;3.92;;;9.90;64.00;;;;;;5113005;28;20043;-67
2022/04/30 02:43:15;;;;;;;7.25;3.78;;;9.80;64.10;;;;;;5113430;28;20031;-67
2022/04/30 02:45:42;;;;;;;8.75;3.80;;;9.90;64.20;;;;;;5095634;28;20028;-67
2022/04/30 02:48:09;;;;;;;6.70;3.50;;;9.80;64.20;;;;;;5113376;28;20042;-67
2022/04/30 02:50:36;;;;;;;6.10;3.42;;;9.70;64.20;;;;;;5113354;28;20043;-67
2022/04/30 02:53:03;;;;;;;9.13;3.55;;;9.50;65.10;;;;;;5113304;28;20024;-67
2022/04/30 02:55:29;;;;;;;8.05;3.60;;;9.50;65.10;;;;;;5113329;28;20071;-67
2022/04/30 03:00:48;;;;;;;9.90;3.75;;;9.60;65.00;;;;;;5113410;28;20035;-67
2022/04/30 03:03:15;;;;;;;7.78;3.45;;;9.60;65.10;;;;;;5113372;28;20193;-67
2022/04/30 03:05:43;;;;;;;7.70;4.10;;;9.50;65.00;;;;;;5113152;28;20024;-67
2022/04/30 03:08:14;;;;;;;7.72;3.92;;;9.50;65.10;;;;;;5113232;28;20024;-67
2022/04/30 03:10:41;;;;;;;10.15;4.10;;;9.50;65.00;;;;;;5113355;28;20017;-67
2022/04/30 03:13:07;;;;;;;8.20;3.50;;;9.40;65.20;;;;;;5113146;28;20028;-67
2022/04/30 03:15:39;;;;;;;9.25;4.22;;;9.40;65.30;;;;;;5113111;28;20036;-67
2022/04/30 03:23:38;;;;;;;8.93;4.20;;;9.40;65.20;;;;;;5113313;28;20111;-67
2022/04/30 03:26:05;;;;;;;6.82;3.85;;;9.50;65.00;;;;;;5113173;28;20028;-68
2022/04/30 03:28:32;;;;;;;9.68;4.38;;;9.40;65.00;;;;;;5094788;28;20052;-67
2022/04/30 03:30:58;;;;;;;8.55;4.45;;;9.30;65.30;;;;;;5113008;28;20047;-67
2022/04/30 03:33:26;;;;;;;7.93;4.00;;;9.30;65.50;;;;;;5112950;28;20032;-67
2022/04/30 03:35:52;;;;;;;11.38;4.38;;;9.30;65.70;;;;;;5113084;28;20044;-67
2022/04/30 03:38:17;;;;;;;12.45;4.47;;;9.30;65.80;;;;;;5095024;28;20032;-68
2022/04/30 03:40:43;;;;;;;9.05;4.72;;;9.20;65.80;;;;;;5112856;28;20028;-67
2022/04/30 03:43:09;;;;;;;10.82;4.65;;;9.30;65.80;;;;;;5112866;28;20043;-67
2022/04/30 03:45:35;;;;;;;8.52;4.30;;;9.30;65.80;;;;;;5094763;28;20020;-67
2022/04/30 03:48:01;;;;;;;7.88;4.50;;;9.30;66.00;;;;;;5094915;28;20024;-67
2022/04/30 03:50:26;;;;;;;9.13;4.40;;;9.30;66.00;;;;;;5113979;28;20031;-67
2022/04/30 03:52:52;;;;;;;9.38;4.25;;;9.30;66.00;;;;;;5116502;28;20031;-67
2022/04/30 03:55:18;;;;;;;9.10;4.85;;;9.30;66.20;;;;;;5116422;28;20038;-67
2022/04/30 03:57:44;;;;;;;10.82;4.45;;;9.30;66.20;;;;;;5116380;28;20032;-67
2022/04/30 04:00:11;;;;;;;10.18;4.75;;;9.30;66.20;;;;;;5116387;28;20054;-68
2022/04/30 04:02:41;;;;;;;9.05;4.60;;;9.30;66.30;;;;;;5116318;28;20028;-67
2022/04/30 04:05:12;;;;;;;8.73;4.72;;;9.30;66.30;;;;;;5116388;28;20027;-67
2022/04/30 04:07:41;;;;;;;9.05;4.55;;;9.30;66.30;;;;;;5116283;28;20463;-67
2022/04/30 04:10:09;;;;;;;12.57;4.82;;;9.20;66.40;;;;;;5098212;28;20052;-67
2022/04/30 04:12:36;;;;;;;11.35;4.95;;;9.20;66.40;;;;;;5116169;28;20036;-67
2022/04/30 04:17:47;;;;;;;12.52;5.00;;;9.20;66.40;;;;;;5116154;28;20100;-68
2022/04/30 04:20:14;;;;;;;8.77;4.38;;;9.20;66.50;;;;;;5115992;28;20024;-68
2022/04/30 04:22:40;;;;;;;12.48;4.60;;;9.20;66.60;;;;;;5115912;28;20027;-67
2022/04/30 04:27:54;;;;;;;9.63;4.65;;;9.10;66.80;;;;;;5115902;28;20103;-67
2022/04/30 04:30:27;;;;;;;10.57;5.03;;;9.10;66.80;;;;;;5075414;28;20060;-67
2022/04/30 04:32:54;;;;;;;10.98;4.93;;;9.10;67.00;;;;;;5075380;28;20024;-67
2022/04/30 04:35:19;;;;;;;9.43;4.60;;;9.10;67.20;;;;;;5075332;28;20032;-67
2022/04/30 04:37:45;;;;;;;10.45;4.43;;;9.10;67.00;;;;;;5075265;28;20033;-67
2022/04/30 04:40:13;;;;;;;14.73;4.95;;;9.10;66.90;;;;;;5074271;28;20033;-67
2022/04/30 04:42:40;;;;;;;10.35;4.88;;;8.90;67.00;;;;;;5075200;28;20072;-67
2022/04/30 04:45:07;;;;;;;9.55;4.93;;;8.80;67.30;;;;;;5075062;28;20096;-67
2022/04/30 04:47:34;;;;;;;10.65;4.95;;;8.60;67.70;;;;;;5075183;28;20025;-67
2022/04/30 04:50:01;;;;;;;10.93;4.65;;;8.60;68.00;;;;;;5075055;28;20084;-68
2022/04/30 04:52:27;;;;;;;9.55;4.57;;;8.50;68.00;;;;;;5074993;28;20028;-67
2022/04/30 04:54:53;;;;;;;10.48;5.22;;;8.50;69.10;;;;;;5074961;28;20021;-68
2022/04/30 04:57:18;;;;;;;8.98;4.75;;;8.50;68.90;;;;;;5074900;28;20029;-67
2022/04/30 04:59:44;;;;;;;9.18;4.32;;;8.50;68.70;;;;;;5074947;28;20029;-67
2022/04/30 05:02:10;;;;;;;12.05;5.47;;;8.50;68.60;;;;;;5074126;28;20032;-68
2022/04/30 05:04:36;;;;;;;8.18;4.32;;;8.30;68.70;;;;;;5074674;28;20043;-67
2022/04/30 05:07:02;;;;;;;8.43;4.50;;;8.40;69.00;;;;;;5074711;28;20020;-68
2022/04/30 05:09:28;;;;;;;8.25;4.53;;;8.40;69.00;;;;;;5074663;28;20059;-68
2022/04/30 05:11:54;;;;;;;9.40;4.75;;;8.50;69.20;;;;;;5074626;28;20029;-68
2022/04/30 05:14:20;;;;;;;10.73;4.55;;;8.50;68.90;;;;;;5074574;28;20055;-68
2022/04/30 05:16:47;;;;;;;10.18;4.72;;;8.50;69.10;;;;;;5074508;28;20028;-68
2022/04/30 05:19:13;;;;;;;10.98;4.60;;;8.50;69.10;;;;;;5073534;28;20024;-68
2022/04/30 05:21:38;;;;;;;9.25;4.13;;;8.50;68.90;;;;;;5074579;28;20029;-68
2022/04/30 05:24:04;;;;;;;10.98;5.30;;;8.60;68.80;;;;;;5074419;28;20040;-67
2022/04/30 05:26:32;;;;;;;8.98;4.75;;;8.60;69.20;;;;;;5074271;28;20140;-67
2022/04/30 05:28:58;;;;;;;11.80;5.45;;;8.60;69.10;;;;;;5091679;28;20043;-67
2022/04/30 05:31:24;;;;;;;10.10;4.85;;;8.70;69.20;;;;;;5114697;28;20414;-68
2022/04/30 05:33:49;;;;;;;12.45;5.75;;;8.80;69.30;;;;;;5096617;28;20044;-67
2022/04/30 05:36:15;;;;;;;11.38;5.53;;;8.80;69.60;;;;;;5114514;28;20387;-67
2022/04/30 05:38:41;;;;;;;12.73;5.75;;;8.90;69.50;;;;;;5114570;28;20046;-67
2022/04/30 05:41:06;;;;;;;11.70;6.05;;;9.00;69.70;;;;;;5114529;28;20418;-67
2022/04/30 05:43:32;;;;;;;12.13;5.15;;;9.00;70.00;;;;;;5114461;28;20032;-67
2022/04/30 05:45:57;;;;;;;11.52;5.60;;;9.10;70.00;;;;;;5114320;28;20032;-67
2022/04/30 05:48:23;;;;;;;13.52;5.55;;;9.20;70.10;;;;;;5096541;28;20032;-67
2022/04/30 05:50:51;;;;;;;12.68;6.00;;;9.20;70.20;;;;;;5114340;28;20048;-67
2022/04/30 05:53:17;;;;;;;13.00;5.70;;;9.30;71.10;;;;;;5114298;28;20088;-67
2022/04/30 05:55:42;;;;;;;13.68;6.18;;;9.30;70.30;;;;;;5114179;28;20028;-67
2022/04/30 05:58:08;;;;;;;13.18;5.65;;;9.30;70.30;;;;;;5114092;28;20088;-67
2022/04/30 06:00:34;;;;;;;12.60;5.45;;;9.40;70.60;;;;;;5096072;28;20036;-67
2022/04/30 06:02:59;;;;;;;12.63;5.65;;;9.40;70.60;;;;;;5114010;28;20036;-67
2022/04/30 06:05:25;;;;;;;12.45;6.18;;;9.50;70.70;;;;;;5113900;28;20028;-67
2022/04/30 06:07:51;;;;;;;12.88;6.15;;;9.50;70.80;;;;;;5113995;28;20016;-67
2022/04/30 06:10:17;;;;;;;9.00;5.50;;;9.50;70.90;;;;;;5113853;28;20024;-67
2022/04/30 06:12:43;;;;;;;12.43;6.43;;;9.60;70.90;;;;;;5113921;28;20069;-67
2022/04/30 06:15:09;;;;;;;11.05;6.00;;;9.60;70.90;;;;;;5112920;28;20027;-67
2022/04/30 06:17:35;;;;;;;12.48;5.97;;;9.60;71.00;;;;;;5113761;28;20053;-67
2022/04/30 06:20:01;;;;;;;12.50;5.88;;;9.70;71.20;;;;;;5113740;28;20131;-67
2022/04/30 06:22:26;;;;;;;11.30;5.45;;;9.70;71.20;;;;;;5113713;28;20031;-67
2022/04/30 06:24:52;;;;;;;10.18;5.68;;;9.70;71.40;;;;;;5113608;28;20028;-67
2022/04/30 06:27:17;;;;;;;9.30;5.32;;;9.80;71.30;;;;;;5113621;28;20016;-67
2022/04/30 06:29:44;;;;;;;12.68;5.25;;;9.80;71.30;;;;;;5095385;28;20052;-67
2022/04/30 06:32:09;;;;;;;11.40;5.30;;;9.90;71.30;;;;;;5095642;28;20016;-67
2022/04/30 06:34:35;;;;;;;12.95;6.35;;;9.90;71.30;;;;;;5113507;28;20111;-67
2022/04/30 06:37:00;;;;;;;11.73;5.70;;;10.00;71.10;;;;;;5113393;28;20038;-66
2022/04/30 06:39:26;;;;;;;11.77;5.63;;;10.00;71.20;;;;;;5113459;28;20057;-67
2022/04/30 06:41:52;;;;;;;11.23;5.63;;;10.00;71.10;;;;;;5113403;28;20024;-67
2022/04/30 06:44:17;;;;;;;7.68;4.82;;;10.10;71.20;;;;;;5113423;28;20035;-67
2022/04/30 06:46:44;;;;;;;8.32;5.30;;;10.20;71.00;;;;;;5113377;28;20024;-67
2022/04/30 06:49:09;;;;;;;10.40;5.13;;;10.20;70.80;;;;;;5095598;28;20017;-67
2022/04/30 06:51:35;;;;;;;9.80;4.93;;;10.30;70.70;;;;;;5113337;28;20039;-67
2022/04/30 06:59:31;;;;;;;10.88;5.10;;;10.40;71.80;;;;;;5098392;28;20092;-67
2022/04/30 07:02:06;;;;;;;11.82;5.07;;;10.50;71.40;;;;;;5113260;28;20035;-67
2022/04/30 07:04:32;;;;;;;11.02;5.22;;;10.60;71.20;;;;;;5113322;28;20095;-67
2022/04/30 07:06:58;;;;;;;10.77;4.72;;;10.60;70.60;;;;;;5113220;28;20020;-67
2022/04/30 07:09:24;;;;;;;7.90;5.40;;;10.70;70.20;;;;;;5113352;28;20028;-67
2022/04/30 07:11:50;;;;;;;8.52;4.72;;;10.70;70.40;;;;;;5095367;28;20031;-67
2022/04/30 07:14:16;;;;;;;9.88;5.22;;;10.80;69.60;;;;;;5113169;28;20088;-67
2022/04/30 07:16:42;;;;;;;7.70;3.97;;;10.80;69.60;;;;;;5113129;28;20043;-67
2022/04/30 07:19:08;;;;;;;11.73;4.28;;;10.90;69.40;;;;;;5113084;28;20040;-68
2022/04/30 07:21:35;;;;;;;9.82;4.80;;;11.00;69.10;;;;;;5113127;28;20028;-67
2022/04/30 07:24:01;;;;;;;7.40;4.20;;;11.00;69.80;;;;;;5113044;28;20024;-67
2022/04/30 07:26:27;;;;;;;7.45;3.63;;;11.10;68.60;;;;;;5081262;28;20048;-68
2022/04/30 07:28:53;;;;;;;9.65;4.30;;;11.20;68.00;;;;;;5098668;28;20048;-67
2022/04/30 07:31:19;;;;;;;7.25;4.15;;;11.20;67.60;;;;;;5116945;28;20042;-67
2022/04/30 07:33:44;;;;;;;5.72;3.70;;;11.30;67.30;;;;;;5116981;28;20032;-67
2022/04/30 07:36:10;;;;;;;7.07;3.20;;;11.40;66.90;;;;;;5098975;28;20024;-67
2022/04/30 07:38:36;;;;;;;5.18;3.25;;;11.40;66.10;;;;;;5116808;28;20072;-67
2022/04/30 07:41:02;;;;;;;6.63;3.40;;;11.50;65.60;;;;;;5116790;28;20024;-67
2022/04/30 07:43:28;;;;;;;6.07;3.35;;;11.60;65.40;;;;;;5116699;28;20036;-67
2022/04/30 07:45:54;;;;;;;5.90;3.58;;;11.60;64.70;;;;;;5116590;28;20028;-68
2022/04/30 07:48:19;;;;;;;6.88;3.40;;;11.70;64.80;;;;;;5116639;28;20028;-67
2022/04/30 07:50:45;;;;;;;7.03;3.85;;;11.70;64.60;;;;;;5116518;28;20055;-68
2022/04/30 07:53:14;;;;;;;6.32;4.10;;;11.80;65.10;;;;;;5116493;28;20090;-67
2022/04/30 07:55:40;;;;;;;7.93;3.67;;;12.00;64.90;;;;;;5116470;28;20024;-67
2022/04/30 07:58:06;;;;;;;7.38;3.78;;;12.00;63.60;;;;;;5116412;28;20024;-67
2022/04/30 08:00:32;;;;;;;8.02;4.05;;;12.10;63.00;;;;;;5116409;28;20055;-67
2022/04/30 08:02:58;;;;;;;7.93;3.80;;;12.20;62.90;;;;;;5116353;28;20119;-67
2022/04/30 08:05:24;;;;;;;8.65;3.90;;;12.30;62.70;;;;;;5116256;28;20046;-67
2022/04/30 08:07:50;;;;;;;6.65;4.20;;;12.40;62.00;;;;;;5116179;28;20020;-67
2022/04/30 08:10:17;;;;;;;5.65;3.60;;;12.50;61.70;;;;;;5116199;28;20027;-67
2022/04/30 08:12:42;;;;;;;6.30;3.75;;;12.50;61.30;;;;;;5116100;28;20027;-67
2022/04/30 08:15:09;;;;;;;7.40;4.00;;;12.50;60.70;;;;;;5116217;28;20032;-67
2022/04/30 08:17:36;;;;;;;6.90;4.00;;;12.60;60.80;;;;;;5116129;28;20028;-67
2022/04/30 08:20:03;;;;;;;8.13;4.55;;;12.70;60.90;;;;;;5116001;28;20043;-67
2022/04/30 08:22:28;;;;;;;7.47;4.57;;;12.80;61.30;;;;;;5115961;28;20024;-67
2022/04/30 08:24:54;;;;;;;8.88;4.25;;;12.90;61.80;;;;;;5115851;28;20036;-67
2022/04/30 08:27:21;;;;;;;6.65;4.20;;;13.00;60.90;;;;;;5115903;28;20020;-67
2022/04/30 08:29:46;;;;;;;7.38;4.32;;;13.10;60.20;;;;;;5115567;28;20066;-67
2022/04/30 08:32:14;;;;;;;5.78;4.00;;;13.10;60.00;;;;;;5115750;28;20028;-67
2022/04/30 08:34:40;;;;;;;6.80;3.97;;;13.10;59.80;;;;;;5115652;28;20039;-67
2022/04/30 08:37:06;;;;;;;8.20;4.78;;;13.20;60.10;;;;;;5114536;28;20036;-67
2022/04/30 08:39:31;;;;;;;6.10;4.00;;;13.20;60.10;;;;;;5115609;28;20020;-68
2022/04/30 08:41:58;;;;;;;7.30;4.60;;;13.20;60.00;;;;;;5115603;28;20028;-67
2022/04/30 08:44:24;;;;;;;8.43;4.47;;;13.20;60.10;;;;;;5115483;28;20028;-67
2022/04/30 08:46:51;;;;;;;6.18;4.10;;;13.30;60.30;;;;;;5115523;28;20490;-67
2022/04/30 08:49:17;;;;;;;8.00;4.80;;;13.30;59.70;;;;;;5115437;28;20069;-67
2022/04/30 08:51:42;;;;;;;9.55;4.75;;;13.20;59.20;;;;;;5115397;28;20027;-66
2022/04/30 08:54:08;;;;;;;9.15;5.38;;;13.20;59.70;;;;;;5115343;28;20028;-66
2022/04/30 08:56:35;;;;;;;10.80;4.88;;;13.20;60.10;;;;;;5115284;28;20032;-67
2022/04/30 08:59:04;;;;;;;13.20;5.15;;;13.20;60.00;;;;;;5115286;28;20024;-67
2022/04/30 09:01:32;;;;;;;11.13;5.35;;;13.10;60.10;;;;;;5115246;28;20025;-67
2022/04/30 09:03:57;;;;;;;7.43;4.45;;;13.10;59.20;;;;;;5115137;28;20088;-66
2022/04/30 09:06:25;;;;;;;7.63;4.78;;;13.10;59.50;;;;;;5115073;28;20028;-67
2022/04/30 09:08:52;;;;;;;6.60;4.68;;;13.20;59.70;;;;;;5115009;28;20020;-67
2022/04/30 09:11:26;;;;;;;9.15;4.32;;;13.30;59.70;;;;;;5115003;28;20054;-67
2022/04/30 09:13:52;;;;;;;10.48;4.70;;;13.50;58.90;;;;;;5115022;28;20022;-67
2022/04/30 09:16:22;;;;;;;8.32;4.22;;;13.60;58.90;;;;;;5114902;28;20020;-67
2022/04/30 09:18:49;;;;;;;7.00;4.03;;;13.70;57.90;;;;;;5114885;28;20027;-67
2022/04/30 09:21:17;;;;;;;7.63;4.78;;;13.70;57.50;;;;;;5114858;28;20051;-67
2022/04/30 09:23:43;;;;;;;7.13;4.53;;;13.70;57.10;;;;;;5114807;28;20039;-67
2022/04/30 09:26:10;;;;;;;8.60;5.00;;;13.70;57.40;;;;;;5114640;28;20024;-67
2022/04/30 09:28:37;;;;;;;9.68;4.85;;;13.60;57.60;;;;;;5114432;28;20059;-67
2022/04/30 09:31:12;;;;;;;7.43;4.50;;;13.60;58.10;;;;;;5114756;28;20049;-67
2022/04/30 09:33:51;;;;;;;9.38;4.68;;;13.60;57.90;;;;;;5096559;28;20020;-67
2022/04/30 09:39:18;;;;;;;9.77;4.82;;;13.50;58.00;;;;;;5114760;28;20036;-67
2022/04/30 09:41:44;;;;;;;5.80;4.15;;;13.40;58.90;;;;;;5114482;28;20043;-67
2022/04/30 09:44:14;;;;;;;8.38;4.57;;;13.40;58.60;;;;;;5114402;28;20028;-67
2022/04/30 09:46:40;;;;;;;7.88;4.03;;;13.40;57.90;;;;;;5114399;28;20020;-67
2022/04/30 09:54:41;;;;;;;9.02;4.32;;;13.40;58.00;;;;;;5114358;28;20042;-67
2022/04/30 09:57:08;;;;;;;8.18;4.35;;;13.40;57.50;;;;;;5114131;28;20083;-67
2022/04/30 09:59:38;;;;;;;7.93;4.47;;;13.40;57.30;;;;;;5114130;28;20033;-68
2022/04/30 10:02:06;;;;;;;6.95;4.45;;;13.40;57.50;;;;;;5114056;28;20024;-67
2022/04/30 10:04:34;;;;;;;7.65;4.28;;;13.40;58.20;;;;;;5113980;28;20043;-67
2022/04/30 10:07:01;;;;;;;9.40;4.45;;;13.50;58.50;;;;;;5113969;28;20046;-67
2022/04/30 10:09:31;;;;;;;9.02;4.32;;;13.50;58.00;;;;;;5113908;28;20077;-67
2022/04/30 10:12:15;;;;;;;8.02;4.35;;;13.40;58.10;;;;;;5113938;28;20020;-67
2022/04/30 10:14:47;;;;;;;7.25;4.28;;;13.40;57.70;;;;;;5095876;28;20032;-67
2022/04/30 10:17:16;;;;;;;10.25;4.30;;;13.40;58.10;;;;;;5114000;28;20020;-67
2022/04/30 10:19:45;;;;;;;8.00;4.50;;;13.40;58.30;;;;;;5113779;28;20050;-67
2022/04/30 10:22:16;;;;;;;9.07;4.72;;;13.40;59.50;;;;;;5096063;28;20024;-67
2022/04/30 10:24:49;;;;;;;8.43;4.45;;;13.40;58.50;;;;;;5113679;28;20032;-67
2022/04/30 10:27:17;;;;;;;10.35;4.20;;;13.40;58.00;;;;;;5113752;28;20031;-67
2022/04/30 10:29:57;;;;;;;7.00;4.47;;;13.40;58.30;;;;;;5113450;28;20044;-67
2022/04/30 10:32:37;;;;;;;8.23;4.60;;;13.50;58.30;;;;;;5113560;28;20016;-68
2022/04/30 10:35:05;;;;;;;8.43;4.75;;;13.50;58.30;;;;;;5113617;28;20047;-67
2022/04/30 10:37:35;;;;;;;5.97;4.00;;;13.50;57.80;;;;;;5113648;28;20016;-67
2022/04/30 10:40:10;;;;;;;7.28;4.18;;;13.60;57.50;;;;;;5113508;28;20038;-67
2022/04/30 10:42:43;;;;;;;8.18;4.38;;;13.60;57.20;;;;;;5113597;28;20475;-67
2022/04/30 10:45:13;;;;;;;8.63;4.35;;;13.70;57.20;;;;;;5113474;28;20049;-67
2022/04/30 10:47:55;;;;;;;9.05;4.20;;;13.80;57.40;;;;;;5096238;28;20039;-67
2022/04/30 10:50:22;;;;;;;;;;;13.90;55.70;;;;;;5113819;28;20020;-67
2022/04/30 10:52:49;;;;;;;6.57;3.92;;;13.90;55.30;;;;;;5095506;28;19904;-67
2022/04/30 10:55:16;;;;;;;8.55;4.18;;;14.00;57.30;;;;;;5113294;28;20052;-67
2022/04/30 10:57:43;;;;;;;5.82;3.80;;;14.20;55.70;;;;;;5113299;28;20024;-67
2022/04/30 11:00:09;;;;;;;8.15;4.30;;;14.40;55.20;;;;;;5114134;28;20024;-67
2022/04/30 11:02:35;;;;;;;8.23;4.28;;;14.50;54.70;;;;;;5117397;28;20028;-67
2022/04/30 11:05:01;;;;;;;9.13;4.07;;;14.60;54.50;;;;;;5117371;28;20040;-67
2022/04/30 11:07:29;;;;;;;7.60;4.15;;;14.70;53.70;;;;;;5117434;28;20104;-67
2022/04/30 11:09:56;;;;;;;7.47;4.13;;;14.80;52.90;;;;;;5117410;28;20016;-67
2022/04/30 11:12:32;;;;;;;7.43;3.67;;;14.80;53.00;;;;;;5117352;28;20015;-67
2022/04/30 11:14:58;;;;;;;6.38;3.55;;;14.90;52.90;;;;;;5117381;28;20059;-67
2022/04/30 11:17:25;;;;;;;5.65;3.92;;;15.10;51.20;;;;;;5117382;28;20050;-67
2022/04/30 11:19:52;;;;;;;9.40;4.47;;;15.20;51.20;;;;;;5117198;28;20039;-67
2022/04/30 11:22:20;;;;;;;5.93;3.85;;;15.20;51.50;;;;;;5117144;28;20030;-67
2022/04/30 11:24:45;;;;;;;5.50;3.60;;;15.20;50.70;;;;;;5116921;28;20027;-68
2022/04/30 11:27:12;;;;;;;5.97;3.67;;;15.20;51.30;;;;;;5117078;28;20092;-67
2022/04/30 11:29:58;;;;;;;7.82;3.83;;;15.20;51.00;;;;;;5116615;28;20039;-67
2022/04/30 11:32:29;;;;;;;4.45;3.30;;;15.30;50.60;;;;;;5116922;28;20087;-67
2022/04/30 11:34:59;;;;;;;5.82;3.90;;;15.30;50.60;;;;;;5117077;28;20032;-67
2022/04/30 11:37:25;;;;;;;8.20;3.75;;;15.20;49.40;;;;;;5116962;28;20035;-67
2022/04/30 11:39:51;;;;;;;7.80;4.13;;;15.20;49.40;;;;;;5116977;28;20032;-67
2022/04/30 11:42:16;;;;;;;7.97;4.30;;;15.20;49.60;;;;;;5116740;28;20050;-67
2022/04/30 11:44:43;;;;;;;7.75;4.35;;;15.20;50.20;;;;;;5116659;28;20043;-67
2022/04/30 11:47:09;;;;;;;6.93;4.10;;;15.20;50.50;;;;;;5116673;28;20044;-67
2022/04/30 11:49:35;;;;;;;7.03;4.20;;;15.10;50.50;;;;;;5116634;28;20039;-67
2022/04/30 11:52:02;;;;;;;9.52;4.80;;;15.10;50.70;;;;;;5116547;28;20034;-67
2022/04/30 11:54:28;;;;;;;6.38;4.10;;;15.00;50.30;;;;;;5116475;28;20031;-67
2022/04/30 11:56:56;;;;;;;7.15;4.43;;;15.00;50.70;;;;;;5116575;28;20017;-67
2022/04/30 11:59:35;;;;;;;7.13;4.70;;;14.90;50.60;;;;;;5116417;28;20047;-67
2022/04/30 12:02:10;;;;;;;5.82;4.30;;;14.90;50.20;;;;;;5116486;28;20056;-67
2022/04/30 12:04:37;;;;;;;7.95;4.22;;;14.80;50.00;;;;;;5116272;28;20076;-67
2022/04/30 12:07:06;;;;;;;8.82;4.90;;;14.80;50.70;;;;;;5116315;28;20032;-67
2022/04/30 12:09:37;;;;;;;6.63;4.50;;;14.80;50.40;;;;;;5116237;28;20024;-67
2022/04/30 12:12:16;;;;;;;9.07;5.15;;;14.80;50.10;;;;;;5116145;28;20024;-67
2022/04/30 12:14:46;;;;;;;8.80;4.32;;;14.80;50.70;;;;;;5116165;28;20051;-67
2022/04/30 12:17:12;;;;;;;7.70;4.85;;;14.80;51.10;;;;;;5116050;28;20020;-67
2022/04/30 12:25:15;;;;;;;8.02;4.93;;;14.70;51.20;;;;;;5116024;28;20403;-67
2022/04/30 12:27:50;;;;;;;8.00;5.00;;;14.70;51.80;;;;;;5115912;28;20050;-67
2022/04/30 12:30:16;;;;;;;9.52;5.10;;;14.60;51.70;;;;;;5115771;28;20050;-67
2022/04/30 12:32:51;;;;;;;9.90;5.03;;;14.60;52.10;;;;;;5115804;28;20044;-67
2022/04/30 12:35:25;;;;;;;8.55;4.82;;;14.60;52.20;;;;;;5115748;28;20020;-67
2022/04/30 12:38:14;;;;;;;6.78;4.63;;;14.60;51.90;;;;;;5115709;28;20054;-67
2022/04/30 12:40:43;;;;;;;11.73;5.20;;;14.50;51.80;;;;;;5115677;28;20020;-67
2022/04/30 12:43:09;;;;;;;8.25;5.35;;;14.50;51.80;;;;;;5115556;28;20031;-67
2022/04/30 12:45:39;;;;;;;8.23;4.55;;;14.50;51.80;;;;;;5115428;28;20032;-67
2022/04/30 12:48:05;;;;;;;8.27;4.80;;;14.50;51.60;;;;;;5115548;28;20467;-67
2022/04/30 12:50:32;;;;;;;12.95;5.47;;;14.40;51.40;;;;;;5115465;28;20027;-67
2022/04/30 12:52:59;;;;;;;10.90;5.40;;;14.40;52.40;;;;;;5115382;28;20088;-67
2022/04/30 12:55:25;;;;;;;10.18;5.40;;;14.40;52.00;;;;;;5115500;28;20028;-67
2022/04/30 12:57:50;;;;;;;7.47;5.35;;;14.30;52.00;;;;;;5115292;28;20089;-67
2022/04/30 13:00:17;;;;;;;10.57;5.30;;;14.30;52.70;;;;;;5115306;28;20024;-67
2022/04/30 13:02:44;;;;;;;10.88;5.55;;;14.30;52.90;;;;;;5115173;28;20048;-67
2022/04/30 13:05:11;;;;;;;9.93;5.53;;;14.30;53.30;;;;;;5115035;28;20066;-67
2022/04/30 13:07:37;;;;;;;9.40;5.60;;;14.30;53.30;;;;;;5115117;28;20020;-67
2022/04/30 13:15:33;;;;;;;10.50;5.55;;;14.20;53.20;;;;;;5115165;28;20040;-67
2022/04/30 13:17:58;;;;;;;8.52;5.72;;;14.20;53.00;;;;;;5114926;28;20044;-67
2022/04/30 13:20:25;;;;;;;11.95;5.70;;;14.20;53.60;;;;;;5114858;28;20039;-67
2022/04/30 13:22:52;;;;;;;10.68;6.20;;;14.20;53.20;;;;;;5114340;28;20039;-67
2022/04/30 13:25:18;;;;;;;9.48;5.88;;;14.20;53.40;;;;;;5114763;28;20024;-67
2022/04/30 13:27:47;;;;;;;7.93;5.10;;;14.20;53.60;;;;;;5114699;28;20012;-67
2022/04/30 13:30:15;;;;;;;12.45;5.20;;;14.20;53.00;;;;;;5114580;28;20044;-67
2022/04/30 13:32:41;;;;;;;8.43;5.50;;;14.10;52.50;;;;;;5114631;28;20104;-67